Emden — 3ERP5 — position and weather

sailwx.info

Track history (hours):
 
Tides and Currents Weather Stations Pressure Air Temp Water Temp Dewpoint Dewpoint Depression Visibility Wind Speed Wind Dir Waves Ship Positions

Emden

Last reported at 2015-Jan-25 09:06 UTC. Time now 2015-Jan-25 12:16 UTC.
Position N 39°15' W 009°51'.

Length 177 m; draft 7.7 m.

Type: Ship. MMSI: 355051000.

Date/timePositionNaut miles runAvg speedWind from/ knotsBaromVisibWave heightAir tempDewpointWater temp
2015-Jan-25 09:06N 39°15' W 009°51'1013.5
2015-Jan-25 08:24N 39°06' W 009°51'1113.3
2015-Jan-25 07:33N 38°54' W 009°51'1413.5
2015-Jan-25 06:32N 38°41' W 009°51'1313.3
2015-Jan-25 05:33N 38°31' W 009°39'1413.8
2015-Jan-25 04:33N 38°23' W 009°26'1413.9
2015-Jan-25 03:33N 38°20' W 009°08'1111.0
2015-Jan-25 02:34N 38°28' W 008°58'6 5.5
2015-Jan-25 01:33N 38°31' W 008°52'0 0.0
2015-Jan-25 00:33N 38°31' W 008°52'0 0.0
2015-Jan-24 23:30N 38°31' W 008°52'0 0.0
2015-Jan-24 22:30N 38°31' W 008°52'0 0.0
2015-Jan-24 21:33N 38°31' W 008°52'0 0.0
2015-Jan-24 20:33N 38°31' W 008°52'0 0.0
2015-Jan-24 19:30N 38°31' W 008°52'0 0.0
2015-Jan-24 18:30N 38°31' W 008°52'0 0.0
2015-Jan-24 17:33N 38°31' W 008°52'0 0.0
2015-Jan-24 16:33N 38°31' W 008°52'0 0.0
2015-Jan-24 15:30N 38°31' W 008°52'0 0.0
2015-Jan-24 14:33N 38°31' W 008°52'0 0.0
2015-Jan-24 13:33N 38°31' W 008°52'6 6.5
2015-Jan-24 12:33N 38°27' W 008°58'9 8.6
2015-Jan-24 11:33N 38°20' W 009°06'1313.6
2015-Jan-24 10:33N 38°22' W 009°23'1413.8
2015-Jan-24 09:33N 38°27' W 009°39'1413.6
2015-Jan-24 08:32N 38°33' W 009°56'1312.7
2015-Jan-24 07:32N 38°44' W 010°04'1714.5
2015-Jan-24 06:22N 39°01' W 010°05'1414.2
2015-Jan-24 05:25N 39°14' W 010°06'32212.0
2015-Jan-23 02:32N 43°47' W 006°17'1714.3
2015-Jan-23 01:19N 43°46' W 005°53'1114.2
2015-Jan-23 00:33N 43°45' W 005°38'1414.2
2015-Jan-22 23:33N 43°42' W 005°19'1414.4
2015-Jan-22 22:33N 43°40' W 004°59'  
2015-Jan-18 01:06N 50°41' W 005°50'813.6
2015-Jan-18 00:31N 50°33' W 005°52'88 9.7
2015-Jan-17 15:23N 49°57' W 003°46'2612.0
2015-Jan-17 13:15N 49°60' W 003°07'1213.3
2015-Jan-17 12:21N 50°02' W 002°49'2914.6
2015-Jan-17 10:21N 50°10' W 002°05'2814.0
2015-Jan-17 08:20N 50°18' W 001°22'1012.7
2015-Jan-17 07:33N 50°20' W 001°07'1211.9
2015-Jan-17 06:31N 50°24' W 000°49'1111.7
2015-Jan-17 05:32N 50°27' W 000°32'1212.2
2015-Jan-17 04:32N 50°29' W 000°13'1312.9
2015-Jan-17 03:32N 50°32' E 000°07'1413.9
2015-Jan-17 02:33N 50°35' E 000°28'1514.7
2015-Jan-17 01:33N 50°43' E 000°47'1515.0
2015-Jan-17 00:33N 50°53' E 001°06'1514.5
2015-Jan-16 23:33N 51°02' E 001°23'1313.4
2015-Jan-16 22:33N 51°10' E 001°40'1312.9
2015-Jan-16 21:33N 51°20' E 001°53'1313.4
2015-Jan-16 20:33N 51°31' E 002°06'1413.7
2015-Jan-16 19:33N 51°41' E 002°20'11213.5
2015-Jan-16 11:15N 53°07' E 004°18'1911.1
2015-Jan-16 09:33N 53°24' E 004°34'1110.5
2015-Jan-16 08:33N 53°30' E 004°47'1010.4
2015-Jan-16 07:33N 53°34' E 005°03'10 9.7
2015-Jan-16 06:33N 53°38' E 005°19'9 9.0
2015-Jan-16 05:33N 53°40' E 005°33'8 8.2
2015-Jan-16 04:33N 53°43' E 005°46'8 8.0
2015-Jan-16 03:33N 53°43' E 005°60'9 9.1
2015-Jan-16 02:33N 53°40' E 006°14'1210.2
2015-Jan-16 01:24N 53°37' E 006°33'1011.2
2015-Jan-16 00:33N 53°31' E 006°46'1010.1
2015-Jan-15 23:33N 53°23' E 006°58'8 7.5
2015-Jan-15 22:33N 53°20' E 007°09'1 1.2
2015-Jan-15 21:32N 53°20' E 007°11'0 0.0
2015-Jan-15 20:32N 53°20' E 007°11'0 0.0
2015-Jan-15 19:32N 53°20' E 007°11'0 0.0
2015-Jan-15 18:32N 53°20' E 007°11'0 0.0
2015-Jan-15 17:32N 53°20' E 007°11'0 0.0
2015-Jan-15 16:32N 53°20' E 007°11'0 0.0
2015-Jan-15 15:32N 53°20' E 007°11'0 0.0
2015-Jan-15 14:31N 53°20' E 007°11'0 0.0
2015-Jan-15 13:31N 53°20' E 007°11'0 0.0
2015-Jan-15 12:31N 53°20' E 007°11'0 0.0
2015-Jan-15 11:31N 53°20' E 007°11'0 0.0
2015-Jan-15 10:31N 53°20' E 007°11'0 0.0
2015-Jan-15 09:31N 53°20' E 007°11'  
Track history (hours):
 
Tides and Currents Weather Stations Pressure Air Temp Water Temp Dewpoint Dewpoint Depression Visibility Wind Speed Wind Dir Waves Ship Positions

Emden

Last reported at 2015-Jan-25 09:06 UTC. Time now 2015-Jan-25 12:16 UTC.
Position N 39°15' W 009°51'.

Length 177 m; draft 7.7 m.

Type: Ship. MMSI: 355051000.

Date/timePositionNaut miles runAvg speedWind from/ knotsBaromVisibWave heightAir tempDewpointWater temp
2015-Jan-25 09:06N 39°15' W 009°51'1013.5
2015-Jan-25 08:24N 39°06' W 009°51'1113.3
2015-Jan-25 07:33N 38°54' W 009°51'1413.5
2015-Jan-25 06:32N 38°41' W 009°51'1313.3
2015-Jan-25 05:33N 38°31' W 009°39'1413.8
2015-Jan-25 04:33N 38°23' W 009°26'1413.9
2015-Jan-25 03:33N 38°20' W 009°08'1111.0
2015-Jan-25 02:34N 38°28' W 008°58'6 5.5
2015-Jan-25 01:33N 38°31' W 008°52'0 0.0
2015-Jan-25 00:33N 38°31' W 008°52'0 0.0
2015-Jan-24 23:30N 38°31' W 008°52'0 0.0
2015-Jan-24 22:30N 38°31' W 008°52'0 0.0
2015-Jan-24 21:33N 38°31' W 008°52'0 0.0
2015-Jan-24 20:33N 38°31' W 008°52'0 0.0
2015-Jan-24 19:30N 38°31' W 008°52'0 0.0
2015-Jan-24 18:30N 38°31' W 008°52'0 0.0
2015-Jan-24 17:33N 38°31' W 008°52'0 0.0
2015-Jan-24 16:33N 38°31' W 008°52'0 0.0
2015-Jan-24 15:30N 38°31' W 008°52'0 0.0
2015-Jan-24 14:33N 38°31' W 008°52'0 0.0
2015-Jan-24 13:33N 38°31' W 008°52'6 6.5
2015-Jan-24 12:33N 38°27' W 008°58'9 8.6
2015-Jan-24 11:33N 38°20' W 009°06'1313.6
2015-Jan-24 10:33N 38°22' W 009°23'1413.8
2015-Jan-24 09:33N 38°27' W 009°39'1413.6
2015-Jan-24 08:32N 38°33' W 009°56'1312.7
2015-Jan-24 07:32N 38°44' W 010°04'1714.5
2015-Jan-24 06:22N 39°01' W 010°05'1414.2
2015-Jan-24 05:25N 39°14' W 010°06'32212.0
2015-Jan-23 02:32N 43°47' W 006°17'1714.3
2015-Jan-23 01:19N 43°46' W 005°53'1114.2
2015-Jan-23 00:33N 43°45' W 005°38'1414.2
2015-Jan-22 23:33N 43°42' W 005°19'1414.4
2015-Jan-22 22:33N 43°40' W 004°59'  
2015-Jan-18 01:06N 50°41' W 005°50'813.6
2015-Jan-18 00:31N 50°33' W 005°52'88 9.7
2015-Jan-17 15:23N 49°57' W 003°46'2612.0
2015-Jan-17 13:15N 49°60' W 003°07'1213.3
2015-Jan-17 12:21N 50°02' W 002°49'2914.6
2015-Jan-17 10:21N 50°10' W 002°05'2814.0
2015-Jan-17 08:20N 50°18' W 001°22'1012.7
2015-Jan-17 07:33N 50°20' W 001°07'1211.9
2015-Jan-17 06:31N 50°24' W 000°49'1111.7
2015-Jan-17 05:32N 50°27' W 000°32'1212.2
2015-Jan-17 04:32N 50°29' W 000°13'1312.9
2015-Jan-17 03:32N 50°32' E 000°07'1413.9
2015-Jan-17 02:33N 50°35' E 000°28'1514.7
2015-Jan-17 01:33N 50°43' E 000°47'1515.0
2015-Jan-17 00:33N 50°53' E 001°06'1514.5
2015-Jan-16 23:33N 51°02' E 001°23'1313.4
2015-Jan-16 22:33N 51°10' E 001°40'1312.9
2015-Jan-16 21:33N 51°20' E 001°53'1313.4
2015-Jan-16 20:33N 51°31' E 002°06'1413.7
2015-Jan-16 19:33N 51°41' E 002°20'11213.5
2015-Jan-16 11:15N 53°07' E 004°18'1911.1
2015-Jan-16 09:33N 53°24' E 004°34'1110.5
2015-Jan-16 08:33N 53°30' E 004°47'1010.4
2015-Jan-16 07:33N 53°34' E 005°03'10 9.7
2015-Jan-16 06:33N 53°38' E 005°19'9 9.0
2015-Jan-16 05:33N 53°40' E 005°33'8 8.2
2015-Jan-16 04:33N 53°43' E 005°46'8 8.0
2015-Jan-16 03:33N 53°43' E 005°60'9 9.1
2015-Jan-16 02:33N 53°40' E 006°14'1210.2
2015-Jan-16 01:24N 53°37' E 006°33'1011.2
2015-Jan-16 00:33N 53°31' E 006°46'1010.1
2015-Jan-15 23:33N 53°23' E 006°58'8 7.5
2015-Jan-15 22:33N 53°20' E 007°09'1 1.2
2015-Jan-15 21:32N 53°20' E 007°11'0 0.0
2015-Jan-15 20:32N 53°20' E 007°11'0 0.0
2015-Jan-15 19:32N 53°20' E 007°11'0 0.0
2015-Jan-15 18:32N 53°20' E 007°11'0 0.0
2015-Jan-15 17:32N 53°20' E 007°11'0 0.0
2015-Jan-15 16:32N 53°20' E 007°11'0 0.0
2015-Jan-15 15:32N 53°20' E 007°11'0 0.0
2015-Jan-15 14:31N 53°20' E 007°11'0 0.0
2015-Jan-15 13:31N 53°20' E 007°11'0 0.0
2015-Jan-15 12:31N 53°20' E 007°11'0 0.0
2015-Jan-15 11:31N 53°20' E 007°11'0 0.0
2015-Jan-15 10:31N 53°20' E 007°11'0 0.0
2015-Jan-15 09:31N 53°20' E 007°11'  

Dump ship's entire track history